sensor_id;sensor_type;location;lat;lon;timestamp;temperature;humidity
10597;DHT22;5346;48.766;8.674;2023-05-07T00:00:12;10.40;99.90
10597;DHT22;5346;48.766;8.674;2023-05-07T00:02:48;10.40;99.90
10597;DHT22;5346;48.766;8.674;2023-05-07T00:05:16;10.40;99.90
10597;DHT22;5346;48.766;8.674;2023-05-07T00:07:56;10.50;99.90
10597;DHT22;5346;48.766;8.674;2023-05-07T00:10:37;10.40;99.90
10597;DHT22;5346;48.766;8.674;2023-05-07T00:13:04;10.40;99.90
10597;DHT22;5346;48.766;8.674;2023-05-07T00:15:38;10.40;99.90
10597;DHT22;5346;48.766;8.674;2023-05-07T00:18:05;10.40;99.90
10597;DHT22;5346;48.766;8.674;2023-05-07T00:20:39;10.50;99.90
10597;DHT22;5346;48.766;8.674;2023-05-07T00:23:06;10.50;99.90
10597;DHT22;5346;48.766;8.674;2023-05-07T00:25:33;10.60;99.90
10597;DHT22;5346;48.766;8.674;2023-05-07T00:28:07;10.50;99.90
10597;DHT22;5346;48.766;8.674;2023-05-07T00:30:41;10.50;99.90
10597;DHT22;5346;48.766;8.674;2023-05-07T00:33:08;10.50;99.90
10597;DHT22;5346;48.766;8.674;2023-05-07T00:35:43;10.50;99.90
10597;DHT22;5346;48.766;8.674;2023-05-07T00:38:12;10.50;99.90
10597;DHT22;5346;48.766;8.674;2023-05-07T00:40:46;10.50;99.90
10597;DHT22;5346;48.766;8.674;2023-05-07T00:43:13;10.50;99.90
10597;DHT22;5346;48.766;8.674;2023-05-07T00:45:47;10.40;99.90
10597;DHT22;5346;48.766;8.674;2023-05-07T00:48:15;10.40;99.90
10597;DHT22;5346;48.766;8.674;2023-05-07T00:50:43;10.50;99.90
10597;DHT22;5346;48.766;8.674;2023-05-07T00:53:17;10.50;99.90
10597;DHT22;5346;48.766;8.674;2023-05-07T00:55:51;10.40;99.90
10597;DHT22;5346;48.766;8.674;2023-05-07T00:58:25;10.50;99.90
10597;DHT22;5346;48.766;8.674;2023-05-07T01:00:59;10.50;99.90
10597;DHT22;5346;48.766;8.674;2023-05-07T01:03:33;10.60;99.90
10597;DHT22;5346;48.766;8.674;2023-05-07T01:06:07;10.60;99.90
10597;DHT22;5346;48.766;8.674;2023-05-07T01:08:37;10.60;99.90
10597;DHT22;5346;48.766;8.674;2023-05-07T01:11:13;10.60;99.90
10597;DHT22;5346;48.766;8.674;2023-05-07T01:13:47;10.60;99.90
10597;DHT22;5346;48.766;8.674;2023-05-07T01:16:29;10.50;99.90
10597;DHT22;5346;48.766;8.674;2023-05-07T01:19:04;10.50;99.90
10597;DHT22;5346;48.766;8.674;2023-05-07T01:21:38;10.50;99.90
10597;DHT22;5346;48.766;8.674;2023-05-07T01:24:12;10.50;99.90
10597;DHT22;5346;48.766;8.674;2023-05-07T01:26:40;10.50;99.90
10597;DHT22;5346;48.766;8.674;2023-05-07T01:29:16;10.50;99.90
10597;DHT22;5346;48.766;8.674;2023-05-07T01:31:43;10.50;99.90
10597;DHT22;5346;48.766;8.674;2023-05-07T01:34:19;10.60;99.90
10597;DHT22;5346;48.766;8.674;2023-05-07T01:36:55;10.60;99.90
10597;DHT22;5346;48.766;8.674;2023-05-07T01:39:32;10.60;99.90
10597;DHT22;5346;48.766;8.674;2023-05-07T01:42:06;10.70;99.90
10597;DHT22;5346;48.766;8.674;2023-05-07T01:44:47;10.70;99.90
10597;DHT22;5346;48.766;8.674;2023-05-07T01:47:21;10.90;99.90
10597;DHT22;5346;48.766;8.674;2023-05-07T01:49:57;10.90;86.50
10597;DHT22;5346;48.766;8.674;2023-05-07T01:52:31;11.00;34.50
10597;DHT22;5346;48.766;8.674;2023-05-07T01:54:59;11.20;1.00
10597;DHT22;5346;48.766;8.674;2023-05-07T01:57:33;11.20;1.00
10597;DHT22;5346;48.766;8.674;2023-05-07T02:00:00;11.20;1.00
10597;DHT22;5346;48.766;8.674;2023-05-07T02:02:37;11.10;1.00
10597;DHT22;5346;48.766;8.674;2023-05-07T02:05:05;11.10;1.00
10597;DHT22;5346;48.766;8.674;2023-05-07T02:07:45;11.00;1.00
10597;DHT22;5346;48.766;8.674;2023-05-07T02:10:26;11.00;1.00
10597;DHT22;5346;48.766;8.674;2023-05-07T02:13:00;11.00;36.60
10597;DHT22;5346;48.766;8.674;2023-05-07T02:15:37;10.90;60.70
10597;DHT22;5346;48.766;8.674;2023-05-07T02:18:11;10.80;85.00
10597;DHT22;5346;48.766;8.674;2023-05-07T02:20:38;10.80;99.90
10597;DHT22;5346;48.766;8.674;2023-05-07T02:23:13;10.70;99.90
10597;DHT22;5346;48.766;8.674;2023-05-07T02:25:40;10.70;99.90
10597;DHT22;5346;48.766;8.674;2023-05-07T02:28:14;10.60;99.90
10597;DHT22;5346;48.766;8.674;2023-05-07T02:30:42;10.60;99.90
10597;DHT22;5346;48.766;8.674;2023-05-07T02:33:15;10.60;99.90
10597;DHT22;5346;48.766;8.674;2023-05-07T02:35:42;10.50;99.90
10597;DHT22;5346;48.766;8.674;2023-05-07T02:38:16;10.50;99.90
10597;DHT22;5346;48.766;8.674;2023-05-07T02:40:50;10.40;99.90
10597;DHT22;5346;48.766;8.674;2023-05-07T02:43:17;10.40;99.90
10597;DHT22;5346;48.766;8.674;2023-05-07T02:46:06;10.40;99.90
10597;DHT22;5346;48.766;8.674;2023-05-07T02:48:41;10.30;99.90
10597;DHT22;5346;48.766;8.674;2023-05-07T02:51:16;10.20;99.90
10597;DHT22;5346;48.766;8.674;2023-05-07T02:53:49;10.20;1.00
10597;DHT22;5346;48.766;8.674;2023-05-07T02:56:26;10.20;1.00
10597;DHT22;5346;48.766;8.674;2023-05-07T02:59:00;10.10;1.00
10597;DHT22;5346;48.766;8.674;2023-05-07T03:01:34;10.10;1.00
10597;DHT22;5346;48.766;8.674;2023-05-07T03:04:01;10.10;1.00
10597;DHT22;5346;48.766;8.674;2023-05-07T03:06:35;10.00;1.00
10597;DHT22;5346;48.766;8.674;2023-05-07T03:09:16;10.00;1.00
10597;DHT22;5346;48.766;8.674;2023-05-07T03:11:50;10.00;1.00
10597;DHT22;5346;48.766;8.674;2023-05-07T03:14:31;9.90;1.00
10597;DHT22;5346;48.766;8.674;2023-05-07T03:16:58;9.80;1.00
10597;DHT22;5346;48.766;8.674;2023-05-07T03:19:31;9.70;51.70
10597;DHT22;5346;48.766;8.674;2023-05-07T03:21:58;9.70;99.90
10597;DHT22;5346;48.766;8.674;2023-05-07T03:24:32;9.70;99.90
10597;DHT22;5346;48.766;8.674;2023-05-07T03:26:59;9.60;99.90
10597;DHT22;5346;48.766;8.674;2023-05-07T03:29:34;9.70;99.90
10597;DHT22;5346;48.766;8.674;2023-05-07T03:32:08;9.80;99.90
10597;DHT22;5346;48.766;8.674;2023-05-07T03:34:42;9.80;99.90
10597;DHT22;5346;48.766;8.674;2023-05-07T03:37:16;9.70;99.90
10597;DHT22;5346;48.766;8.674;2023-05-07T03:39:43;9.80;99.90
10597;DHT22;5346;48.766;8.674;2023-05-07T03:42:17;9.90;82.50
10597;DHT22;5346;48.766;8.674;2023-05-07T03:44:44;9.80;65.90
10597;DHT22;5346;48.766;8.674;2023-05-07T03:47:18;9.80;49.30
10597;DHT22;5346;48.766;8.674;2023-05-07T03:49:45;9.80;49.20
10597;DHT22;5346;48.766;8.674;2023-05-07T03:52:12;9.80;68.60
10597;DHT22;5346;48.766;8.674;2023-05-07T03:54:46;9.70;99.90
10597;DHT22;5346;48.766;8.674;2023-05-07T03:57:13;9.70;99.90
10597;DHT22;5346;48.766;8.674;2023-05-07T03:59:47;9.70;99.90
10597;DHT22;5346;48.766;8.674;2023-05-07T04:02:21;9.60;99.90
10597;DHT22;5346;48.766;8.674;2023-05-07T04:04:56;9.70;99.90
10597;DHT22;5346;48.766;8.674;2023-05-07T04:07:23;9.70;99.90
10597;DHT22;5346;48.766;8.674;2023-05-07T04:09:56;9.60;99.90
10597;DHT22;5346;48.766;8.674;2023-05-07T04:12:32;9.60;99.90
10597;DHT22;5346;48.766;8.674;2023-05-07T04:15:05;9.60;99.90
10597;DHT22;5346;48.766;8.674;2023-05-07T04:17:40;9.60;99.90
10597;DHT22;5346;48.766;8.674;2023-05-07T04:20:09;9.60;99.90
10597;DHT22;5346;48.766;8.674;2023-05-07T04:22:44;9.60;99.90
10597;DHT22;5346;48.766;8.674;2023-05-07T04:25:11;9.60;99.90
10597;DHT22;5346;48.766;8.674;2023-05-07T04:27:45;9.70;99.90
10597;DHT22;5346;48.766;8.674;2023-05-07T04:30:13;9.70;99.90
10597;DHT22;5346;48.766;8.674;2023-05-07T04:32:47;9.80;99.90
10597;DHT22;5346;48.766;8.674;2023-05-07T04:35:22;9.90;99.90
10597;DHT22;5346;48.766;8.674;2023-05-07T04:37:56;10.00;99.90
10597;DHT22;5346;48.766;8.674;2023-05-07T04:40:30;10.00;99.90
10597;DHT22;5346;48.766;8.674;2023-05-07T04:42:57;10.20;5.50
10597;DHT22;5346;48.766;8.674;2023-05-07T04:45:31;10.30;1.00
10597;DHT22;5346;48.766;8.674;2023-05-07T04:48:05;10.40;1.00
10597;DHT22;5346;48.766;8.674;2023-05-07T04:50:32;10.50;1.00
10597;DHT22;5346;48.766;8.674;2023-05-07T04:53:06;10.50;1.00
10597;DHT22;5346;48.766;8.674;2023-05-07T04:55:33;10.60;1.00
10597;DHT22;5346;48.766;8.674;2023-05-07T04:58:07;10.70;1.00
10597;DHT22;5346;48.766;8.674;2023-05-07T05:00:35;10.90;1.00
10597;DHT22;5346;48.766;8.674;2023-05-07T05:03:09;10.90;1.00
10597;DHT22;5346;48.766;8.674;2023-05-07T05:05:36;11.00;1.00
10597;DHT22;5346;48.766;8.674;2023-05-07T05:08:04;11.10;99.90
10597;DHT22;5346;48.766;8.674;2023-05-07T05:10:44;11.20;99.90
10597;DHT22;5346;48.766;8.674;2023-05-07T05:13:17;11.40;99.90
10597;DHT22;5346;48.766;8.674;2023-05-07T05:15:44;11.60;99.90
10597;DHT22;5346;48.766;8.674;2023-05-07T05:18:19;11.90;99.90
10597;DHT22;5346;48.766;8.674;2023-05-07T05:20:47;12.10;1.00
10597;DHT22;5346;48.766;8.674;2023-05-07T05:23:21;12.40;1.00
10597;DHT22;5346;48.766;8.674;2023-05-07T05:25:56;12.70;1.00
10597;DHT22;5346;48.766;8.674;2023-05-07T05:28:24;12.90;1.00
10597;DHT22;5346;48.766;8.674;2023-05-07T05:31:07;13.10;1.00
10597;DHT22;5346;48.766;8.674;2023-05-07T05:33:47;13.30;1.00
10597;DHT22;5346;48.766;8.674;2023-05-07T05:36:21;13.30;1.00
10597;DHT22;5346;48.766;8.674;2023-05-07T05:38:49;13.30;99.90
10597;DHT22;5346;48.766;8.674;2023-05-07T05:41:23;13.30;99.90
10597;DHT22;5346;48.766;8.674;2023-05-07T05:43:51;13.40;99.90
10597;DHT22;5346;48.766;8.674;2023-05-07T05:46:24;13.60;99.90
10597;DHT22;5346;48.766;8.674;2023-05-07T05:49:02;14.00;99.90
10597;DHT22;5346;48.766;8.674;2023-05-07T05:51:36;14.30;99.90
10597;DHT22;5346;48.766;8.674;2023-05-07T05:54:10;14.70;39.50
10597;DHT22;5346;48.766;8.674;2023-05-07T05:56:37;14.90;1.00
10597;DHT22;5346;48.766;8.674;2023-05-07T05:59:13;15.10;12.50
10597;DHT22;5346;48.766;8.674;2023-05-07T06:01:41;15.20;1.00
10597;DHT22;5346;48.766;8.674;2023-05-07T06:04:08;15.10;1.00
10597;DHT22;5346;48.766;8.674;2023-05-07T06:06:42;14.90;11.10
10597;DHT22;5346;48.766;8.674;2023-05-07T06:09:09;14.70;44.80
10597;DHT22;5346;48.766;8.674;2023-05-07T06:11:49;14.50;85.70
10597;DHT22;5346;48.766;8.674;2023-05-07T06:14:26;14.30;90.10
10597;DHT22;5346;48.766;8.674;2023-05-07T06:17:00;14.20;99.90
10597;DHT22;5346;48.766;8.674;2023-05-07T06:19:27;14.20;99.90
10597;DHT22;5346;48.766;8.674;2023-05-07T06:22:01;14.40;99.90
10597;DHT22;5346;48.766;8.674;2023-05-07T06:24:35;14.70;99.90
10597;DHT22;5346;48.766;8.674;2023-05-07T06:27:09;15.00;87.40
10597;DHT22;5346;48.766;8.674;2023-05-07T06:29:36;15.50;99.90
10597;DHT22;5346;48.766;8.674;2023-05-07T06:32:11;15.80;8.90
10597;DHT22;5346;48.766;8.674;2023-05-07T06:34:40;16.10;1.00
10597;DHT22;5346;48.766;8.674;2023-05-07T06:37:07;16.40;1.00
10597;DHT22;5346;48.766;8.674;2023-05-07T06:39:41;16.70;1.00
10597;DHT22;5346;48.766;8.674;2023-05-07T06:42:08;16.90;1.00
10597;DHT22;5346;48.766;8.674;2023-05-07T06:44:42;17.20;1.00
10597;DHT22;5346;48.766;8.674;2023-05-07T06:47:16;17.30;1.00
10597;DHT22;5346;48.766;8.674;2023-05-07T06:49:50;17.60;1.00
10597;DHT22;5346;48.766;8.674;2023-05-07T06:52:24;17.80;1.00
10597;DHT22;5346;48.766;8.674;2023-05-07T06:54:51;18.20;1.00
10597;DHT22;5346;48.766;8.674;2023-05-07T06:57:25;18.60;1.00
10597;DHT22;5346;48.766;8.674;2023-05-07T06:59:52;18.90;1.00
10597;DHT22;5346;48.766;8.674;2023-05-07T07:02:26;19.10;1.00
10597;DHT22;5346;48.766;8.674;2023-05-07T07:04:53;19.20;1.00
10597;DHT22;5346;48.766;8.674;2023-05-07T07:07:27;19.20;1.00
10597;DHT22;5346;48.766;8.674;2023-05-07T07:10:08;19.00;1.00
10597;DHT22;5346;48.766;8.674;2023-05-07T07:12:49;18.80;1.00
10597;DHT22;5346;48.766;8.674;2023-05-07T07:15:23;18.50;1.00
10597;DHT22;5346;48.766;8.674;2023-05-07T07:17:51;18.20;1.00
10597;DHT22;5346;48.766;8.674;2023-05-07T07:20:25;18.10;1.00
10597;DHT22;5346;48.766;8.674;2023-05-07T07:22:59;17.80;1.00
10597;DHT22;5346;48.766;8.674;2023-05-07T07:25:33;17.60;1.00
10597;DHT22;5346;48.766;8.674;2023-05-07T07:28:00;17.40;1.00
10597;DHT22;5346;48.766;8.674;2023-05-07T07:30:34;17.30;1.00
10597;DHT22;5346;48.766;8.674;2023-05-07T07:33:08;17.40;1.00
10597;DHT22;5346;48.766;8.674;2023-05-07T07:35:42;17.50;1.00
10597;DHT22;5346;48.766;8.674;2023-05-07T07:38:09;17.80;1.00
10597;DHT22;5346;48.766;8.674;2023-05-07T07:40:43;18.20;1.00
10597;DHT22;5346;48.766;8.674;2023-05-07T07:43:17;18.80;1.00
10597;DHT22;5346;48.766;8.674;2023-05-07T07:45:51;19.40;1.00
10597;DHT22;5346;48.766;8.674;2023-05-07T07:48:25;19.80;1.00
10597;DHT22;5346;48.766;8.674;2023-05-07T07:50:59;19.90;1.00
10597;DHT22;5346;48.766;8.674;2023-05-07T07:53:33;19.90;1.00
10597;DHT22;5346;48.766;8.674;2023-05-07T07:56:00;19.60;1.00
10597;DHT22;5346;48.766;8.674;2023-05-07T07:58:34;19.00;1.00
10597;DHT22;5346;48.766;8.674;2023-05-07T08:01:09;18.70;1.00
10597;DHT22;5346;48.766;8.674;2023-05-07T08:03:43;18.50;1.00
10597;DHT22;5346;48.766;8.674;2023-05-07T08:06:10;18.60;1.00
10597;DHT22;5346;48.766;8.674;2023-05-07T08:08:51;18.90;1.00
10597;DHT22;5346;48.766;8.674;2023-05-07T08:11:32;19.40;1.00
10597;DHT22;5346;48.766;8.674;2023-05-07T08:14:06;19.80;1.00
10597;DHT22;5346;48.766;8.674;2023-05-07T08:16:40;20.30;1.00
10597;DHT22;5346;48.766;8.674;2023-05-07T08:19:14;20.40;1.00
10597;DHT22;5346;48.766;8.674;2023-05-07T08:21:41;21.00;1.00
10597;DHT22;5346;48.766;8.674;2023-05-07T08:24:15;21.40;1.00
10597;DHT22;5346;48.766;8.674;2023-05-07T08:26:43;21.70;1.00
10597;DHT22;5346;48.766;8.674;2023-05-07T08:29:18;21.60;1.00
10597;DHT22;5346;48.766;8.674;2023-05-07T08:31:45;21.00;1.00
10597;DHT22;5346;48.766;8.674;2023-05-07T08:34:12;21.00;1.00
10597;DHT22;5346;48.766;8.674;2023-05-07T08:36:46;21.00;1.00
10597;DHT22;5346;48.766;8.674;2023-05-07T08:39:18;21.20;1.00
10597;DHT22;5346;48.766;8.674;2023-05-07T08:41:55;21.70;1.00
10597;DHT22;5346;48.766;8.674;2023-05-07T08:44:26;22.20;1.00
10597;DHT22;5346;48.766;8.674;2023-05-07T08:47:02;22.30;1.00
10597;DHT22;5346;48.766;8.674;2023-05-07T08:49:29;22.20;1.00
10597;DHT22;5346;48.766;8.674;2023-05-07T08:52:03;22.30;1.00
10597;DHT22;5346;48.766;8.674;2023-05-07T08:54:30;22.50;1.00
10597;DHT22;5346;48.766;8.674;2023-05-07T08:56:58;22.50;1.00
10597;DHT22;5346;48.766;8.674;2023-05-07T08:59:32;22.50;1.00
10597;DHT22;5346;48.766;8.674;2023-05-07T09:01:59;22.80;1.00
10597;DHT22;5346;48.766;8.674;2023-05-07T09:04:35;22.90;1.00
10597;DHT22;5346;48.766;8.674;2023-05-07T09:07:02;22.50;1.00
10597;DHT22;5346;48.766;8.674;2023-05-07T09:09:32;22.60;1.00
10597;DHT22;5346;48.766;8.674;2023-05-07T09:12:07;22.70;1.00
10597;DHT22;5346;48.766;8.674;2023-05-07T09:14:41;23.60;1.00
10597;DHT22;5346;48.766;8.674;2023-05-07T09:17:18;23.80;1.00
10597;DHT22;5346;48.766;8.674;2023-05-07T09:19:45;23.60;1.00
10597;DHT22;5346;48.766;8.674;2023-05-07T09:22:26;23.90;1.00
10597;DHT22;5346;48.766;8.674;2023-05-07T09:24:53;24.30;1.00
10597;DHT22;5346;48.766;8.674;2023-05-07T09:27:27;24.70;1.00
10597;DHT22;5346;48.766;8.674;2023-05-07T09:30:07;24.20;1.00
10597;DHT22;5346;48.766;8.674;2023-05-07T09:32:41;23.90;1.00
10597;DHT22;5346;48.766;8.674;2023-05-07T09:35:16;23.80;1.00
10597;DHT22;5346;48.766;8.674;2023-05-07T09:37:44;23.80;1.00
10597;DHT22;5346;48.766;8.674;2023-05-07T09:40:27;23.50;1.00
10597;DHT22;5346;48.766;8.674;2023-05-07T09:42:55;23.00;1.00
10597;DHT22;5346;48.766;8.674;2023-05-07T09:45:29;22.60;1.00
10597;DHT22;5346;48.766;8.674;2023-05-07T09:47:57;22.10;1.00
10597;DHT22;5346;48.766;8.674;2023-05-07T09:50:48;21.20;1.00
10597;DHT22;5346;48.766;8.674;2023-05-07T09:53:23;20.70;1.00
10597;DHT22;5346;48.766;8.674;2023-05-07T09:55:52;20.20;1.00
10597;DHT22;5346;48.766;8.674;2023-05-07T09:58:29;19.50;1.00
10597;DHT22;5346;48.766;8.674;2023-05-07T10:00:58;18.80;1.00
10597;DHT22;5346;48.766;8.674;2023-05-07T10:03:32;18.20;1.00
10597;DHT22;5346;48.766;8.674;2023-05-07T10:06:03;17.70;99.90
10597;DHT22;5346;48.766;8.674;2023-05-07T10:08:38;17.20;99.90
10597;DHT22;5346;48.766;8.674;2023-05-07T10:11:26;16.80;99.90
10597;DHT22;5346;48.766;8.674;2023-05-07T10:14:02;16.50;1.00
10597;DHT22;5346;48.766;8.674;2023-05-07T10:16:34;16.20;99.90
10597;DHT22;5346;48.766;8.674;2023-05-07T10:19:11;16.00;1.00
10597;DHT22;5346;48.766;8.674;2023-05-07T10:21:56;15.70;1.00
10597;DHT22;5346;48.766;8.674;2023-05-07T10:24:36;15.50;1.00
10597;DHT22;5346;48.766;8.674;2023-05-07T10:27:12;15.20;1.00
10597;DHT22;5346;48.766;8.674;2023-05-07T10:33:05;14.80;1.00
10597;DHT22;5346;48.766;8.674;2023-05-07T10:35:44;14.60;82.00
10597;DHT22;5346;48.766;8.674;2023-05-07T10:38:14;14.50;99.90
10597;DHT22;5346;48.766;8.674;2023-05-07T10:40:41;14.30;1.00
10597;DHT22;5346;48.766;8.674;2023-05-07T10:43:16;14.20;1.00
10597;DHT22;5346;48.766;8.674;2023-05-07T10:46:10;14.20;1.00
10597;DHT22;5346;48.766;8.674;2023-05-07T10:51:30;14.30;99.90
10597;DHT22;5346;48.766;8.674;2023-05-07T10:56:45;14.10;73.00
10597;DHT22;5346;48.766;8.674;2023-05-07T11:04:33;13.80;1.00
10597;DHT22;5346;48.766;8.674;2023-05-07T11:15:38;14.40;1.20
10597;DHT22;5346;48.766;8.674;2023-05-07T11:18:06;14.50;72.60
10597;DHT22;5346;48.766;8.674;2023-05-07T11:20:54;14.70;36.60
10597;DHT22;5346;48.766;8.674;2023-05-07T11:26:10;14.60;1.00
10597;DHT22;5346;48.766;8.674;2023-05-07T11:28:44;14.60;1.00
10597;DHT22;5346;48.766;8.674;2023-05-07T11:31:25;14.60;99.90
10597;DHT22;5346;48.766;8.674;2023-05-07T11:34:01;14.60;99.90
10597;DHT22;5346;48.766;8.674;2023-05-07T11:36:32;14.60;1.00
10597;DHT22;5346;48.766;8.674;2023-05-07T11:39:06;14.70;1.00
10597;DHT22;5346;48.766;8.674;2023-05-07T11:42:29;14.80;1.00
10597;DHT22;5346;48.766;8.674;2023-05-07T11:45:08;15.00;1.00
10597;DHT22;5346;48.766;8.674;2023-05-07T11:47:36;15.20;1.00
10597;DHT22;5346;48.766;8.674;2023-05-07T11:50:06;15.40;1.00
10597;DHT22;5346;48.766;8.674;2023-05-07T11:52:50;15.60;99.90
10597;DHT22;5346;48.766;8.674;2023-05-07T11:55:25;15.80;1.00
10597;DHT22;5346;48.766;8.674;2023-05-07T11:57:59;16.10;99.90
10597;DHT22;5346;48.766;8.674;2023-05-07T12:00:26;17.10;1.00
10597;DHT22;5346;48.766;8.674;2023-05-07T12:03:04;18.00;1.00
10597;DHT22;5346;48.766;8.674;2023-05-07T12:05:38;19.00;1.00
10597;DHT22;5346;48.766;8.674;2023-05-07T12:08:19;20.10;1.00
10597;DHT22;5346;48.766;8.674;2023-05-07T12:10:54;20.70;1.00
10597;DHT22;5346;48.766;8.674;2023-05-07T12:13:35;20.80;99.90
10597;DHT22;5346;48.766;8.674;2023-05-07T12:16:03;20.40;99.90
10597;DHT22;5346;48.766;8.674;2023-05-07T12:18:38;19.80;1.00
10597;DHT22;5346;48.766;8.674;2023-05-07T12:21:13;19.30;99.90
10597;DHT22;5346;48.766;8.674;2023-05-07T12:23:47;19.00;99.90
10597;DHT22;5346;48.766;8.674;2023-05-07T12:26:14;18.70;99.90
10597;DHT22;5346;48.766;8.674;2023-05-07T12:28:48;18.30;99.90
10597;DHT22;5346;48.766;8.674;2023-05-07T12:31:22;18.10;99.90
10597;DHT22;5346;48.766;8.674;2023-05-07T12:33:56;17.90;99.90
10597;DHT22;5346;48.766;8.674;2023-05-07T12:36:39;17.80;1.00
10597;DHT22;5346;48.766;8.674;2023-05-07T12:39:13;17.50;58.10
10597;DHT22;5346;48.766;8.674;2023-05-07T12:41:56;17.20;99.90
10597;DHT22;5346;48.766;8.674;2023-05-07T12:44:29;16.80;1.00
10597;DHT22;5346;48.766;8.674;2023-05-07T12:47:06;16.50;1.00
10597;DHT22;5346;48.766;8.674;2023-05-07T12:49:41;16.20;99.90
10597;DHT22;5346;48.766;8.674;2023-05-07T12:52:15;15.90;1.00
10597;DHT22;5346;48.766;8.674;2023-05-07T12:54:44;15.70;1.00
10597;DHT22;5346;48.766;8.674;2023-05-07T12:57:19;15.60;99.90
10597;DHT22;5346;48.766;8.674;2023-05-07T12:59:47;15.40;99.90
10597;DHT22;5346;48.766;8.674;2023-05-07T13:02:32;15.30;99.90
10597;DHT22;5346;48.766;8.674;2023-05-07T13:05:01;15.10;99.90
10597;DHT22;5346;48.766;8.674;2023-05-07T13:07:36;14.90;1.00
10597;DHT22;5346;48.766;8.674;2023-05-07T13:10:10;14.70;67.80
10597;DHT22;5346;48.766;8.674;2023-05-07T13:12:50;14.60;99.90
10597;DHT22;5346;48.766;8.674;2023-05-07T13:15:18;14.30;99.90
10597;DHT22;5346;48.766;8.674;2023-05-07T13:17:52;14.10;1.00
10597;DHT22;5346;48.766;8.674;2023-05-07T13:20:19;14.00;84.00
10597;DHT22;5346;48.766;8.674;2023-05-07T13:22:53;13.80;33.50
10597;DHT22;5346;48.766;8.674;2023-05-07T13:25:20;13.50;1.00
10597;DHT22;5346;48.766;8.674;2023-05-07T13:27:54;13.40;81.20
10597;DHT22;5346;48.766;8.674;2023-05-07T13:30:35;13.30;99.90
10597;DHT22;5346;48.766;8.674;2023-05-07T13:33:09;13.10;99.90
10597;DHT22;5346;48.766;8.674;2023-05-07T13:35:36;13.00;99.90
10597;DHT22;5346;48.766;8.674;2023-05-07T13:38:10;12.90;1.00
10597;DHT22;5346;48.766;8.674;2023-05-07T13:40:44;12.90;1.00
10597;DHT22;5346;48.766;8.674;2023-05-07T13:43:18;12.80;1.00
10597;DHT22;5346;48.766;8.674;2023-05-07T13:45:52;12.70;92.90
10597;DHT22;5346;48.766;8.674;2023-05-07T13:48:19;12.60;99.90
10597;DHT22;5346;48.766;8.674;2023-05-07T13:50:53;12.60;99.90
10597;DHT22;5346;48.766;8.674;2023-05-07T13:53:27;12.50;1.00
10597;DHT22;5346;48.766;8.674;2023-05-07T13:56:01;12.50;1.00
10597;DHT22;5346;48.766;8.674;2023-05-07T13:58:31;12.50;1.00
10597;DHT22;5346;48.766;8.674;2023-05-07T14:01:24;12.50;1.00
10597;DHT22;5346;48.766;8.674;2023-05-07T14:03:51;12.40;1.00
10597;DHT22;5346;48.766;8.674;2023-05-07T14:06:25;12.50;1.00
10597;DHT22;5346;48.766;8.674;2023-05-07T14:08:53;12.50;20.60
10597;DHT22;5346;48.766;8.674;2023-05-07T14:11:20;12.60;37.30
10597;DHT22;5346;48.766;8.674;2023-05-07T14:13:54;12.70;19.20
10597;DHT22;5346;48.766;8.674;2023-05-07T14:16:29;12.80;1.00
10597;DHT22;5346;48.766;8.674;2023-05-07T14:18:56;12.80;1.00
10597;DHT22;5346;48.766;8.674;2023-05-07T14:21:30;12.90;1.00
10597;DHT22;5346;48.766;8.674;2023-05-07T14:23:58;13.00;1.00
10597;DHT22;5346;48.766;8.674;2023-05-07T14:26:33;13.10;99.90
10597;DHT22;5346;48.766;8.674;2023-05-07T14:29:01;13.10;99.90
10597;DHT22;5346;48.766;8.674;2023-05-07T14:31:36;13.20;99.90
10597;DHT22;5346;48.766;8.674;2023-05-07T14:34:03;13.20;1.00
10597;DHT22;5346;48.766;8.674;2023-05-07T14:36:31;13.20;99.90
10597;DHT22;5346;48.766;8.674;2023-05-07T14:39:05;13.30;1.00
10597;DHT22;5346;48.766;8.674;2023-05-07T14:41:32;13.30;1.00
10597;DHT22;5346;48.766;8.674;2023-05-07T14:44:00;13.40;99.90
10597;DHT22;5346;48.766;8.674;2023-05-07T14:46:33;13.40;99.90
10597;DHT22;5346;48.766;8.674;2023-05-07T14:49:07;13.40;99.90
10597;DHT22;5346;48.766;8.674;2023-05-07T14:51:46;13.40;99.90
10597;DHT22;5346;48.766;8.674;2023-05-07T14:54:20;13.40;1.00
10597;DHT22;5346;48.766;8.674;2023-05-07T14:56:54;13.50;1.00
10597;DHT22;5346;48.766;8.674;2023-05-07T14:59:28;13.50;99.90
10597;DHT22;5346;48.766;8.674;2023-05-07T15:01:55;13.50;99.90
10597;DHT22;5346;48.766;8.674;2023-05-07T15:04:33;13.50;1.00
10597;DHT22;5346;48.766;8.674;2023-05-07T15:07:02;13.70;1.00
10597;DHT22;5346;48.766;8.674;2023-05-07T15:09:29;13.80;99.90
10597;DHT22;5346;48.766;8.674;2023-05-07T15:12:03;13.90;99.90
10597;DHT22;5346;48.766;8.674;2023-05-07T15:14:44;14.10;99.90
10597;DHT22;5346;48.766;8.674;2023-05-07T15:17:18;14.20;99.90
10597;DHT22;5346;48.766;8.674;2023-05-07T15:19:52;14.40;99.90
10597;DHT22;5346;48.766;8.674;2023-05-07T15:22:27;14.50;1.00
10597;DHT22;5346;48.766;8.674;2023-05-07T15:24:54;14.60;1.00
10597;DHT22;5346;48.766;8.674;2023-05-07T15:27:30;14.70;1.00
10597;DHT22;5346;48.766;8.674;2023-05-07T15:30:05;14.80;1.00
10597;DHT22;5346;48.766;8.674;2023-05-07T15:32:41;15.00;1.00
10597;DHT22;5346;48.766;8.674;2023-05-07T15:35:09;15.00;1.00
10597;DHT22;5346;48.766;8.674;2023-05-07T15:37:43;15.10;99.90
10597;DHT22;5346;48.766;8.674;2023-05-07T15:40:17;15.00;99.90
10597;DHT22;5346;48.766;8.674;2023-05-07T15:42:45;15.00;99.90
10597;DHT22;5346;48.766;8.674;2023-05-07T15:45:19;15.00;99.90
10597;DHT22;5346;48.766;8.674;2023-05-07T15:47:46;15.00;99.90
10597;DHT22;5346;48.766;8.674;2023-05-07T15:50:20;15.00;99.90
10597;DHT22;5346;48.766;8.674;2023-05-07T15:52:47;15.00;99.90
10597;DHT22;5346;48.766;8.674;2023-05-07T15:55:21;15.00;99.90
10597;DHT22;5346;48.766;8.674;2023-05-07T15:57:48;14.90;74.80
10597;DHT22;5346;48.766;8.674;2023-05-07T16:00:27;14.70;83.30
10597;DHT22;5346;48.766;8.674;2023-05-07T16:03:00;14.70;99.90
10597;DHT22;5346;48.766;8.674;2023-05-07T16:05:34;14.70;99.90
10597;DHT22;5346;48.766;8.674;2023-05-07T16:08:01;14.60;99.90
10597;DHT22;5346;48.766;8.674;2023-05-07T16:10:34;14.60;99.90
10597;DHT22;5346;48.766;8.674;2023-05-07T16:13:33;14.40;99.90
10597;DHT22;5346;48.766;8.674;2023-05-07T16:16:07;14.30;99.90
10597;DHT22;5346;48.766;8.674;2023-05-07T16:18:34;14.30;1.00
10597;DHT22;5346;48.766;8.674;2023-05-07T16:21:09;14.20;1.00
10597;DHT22;5346;48.766;8.674;2023-05-07T16:23:36;14.10;99.90
10597;DHT22;5346;48.766;8.674;2023-05-07T16:26:10;14.10;1.00
10597;DHT22;5346;48.766;8.674;2023-05-07T16:28:39;14.10;99.90
10597;DHT22;5346;48.766;8.674;2023-05-07T16:31:13;14.20;99.90
10597;DHT22;5346;48.766;8.674;2023-05-07T16:33:40;14.20;99.90
10597;DHT22;5346;48.766;8.674;2023-05-07T16:36:14;14.30;99.90
10597;DHT22;5346;48.766;8.674;2023-05-07T16:38:41;14.30;99.90
10597;DHT22;5346;48.766;8.674;2023-05-07T16:41:15;14.30;99.90
10597;DHT22;5346;48.766;8.674;2023-05-07T16:43:42;14.20;1.00
10597;DHT22;5346;48.766;8.674;2023-05-07T16:46:16;14.20;23.70
10597;DHT22;5346;48.766;8.674;2023-05-07T16:48:43;14.10;78.80
10597;DHT22;5346;48.766;8.674;2023-05-07T16:51:17;14.10;99.90
10597;DHT22;5346;48.766;8.674;2023-05-07T16:53:52;14.00;99.90
10597;DHT22;5346;48.766;8.674;2023-05-07T16:56:26;13.90;99.90